createdAt,value
2022-08-22T00:01:14.077Z,97525.53
2022-08-22T00:03:01.583Z,97543.28
2022-08-22T00:03:07.174Z,97549.22
2022-08-22T00:03:33.219Z,97528.75
2022-08-22T00:05:51.565Z,97529.97
2022-08-22T00:08:07.678Z,97526.53
2022-08-22T00:10:24.929Z,97528.88
2022-08-22T00:12:37.657Z,97530.78
2022-08-22T00:14:52.110Z,97521.56
2022-08-22T00:17:06.414Z,97526.28
2022-08-22T00:19:24.147Z,97529.13
2022-08-22T00:21:45.280Z,97526.97
2022-08-22T00:23:56.890Z,97519.47
2022-08-22T00:26:09.919Z,97524.88
2022-08-22T00:28:24.130Z,97521.31
2022-08-22T00:30:34.426Z,97523.91
2022-08-22T00:32:45.890Z,97516.13
2022-08-22T00:35:01.634Z,97519.66
2022-08-22T00:37:20.396Z,97522.16
2022-08-22T00:39:35.325Z,97516.47
2022-08-22T00:42:31.604Z,97514.31
2022-08-22T00:45:21.850Z,97516.88
2022-08-22T00:47:47.870Z,97519.09
2022-08-22T00:50:25.015Z,97522.31
2022-08-22T00:53:16.239Z,97517.56
2022-08-22T00:55:39.602Z,97516.19
2022-08-22T00:58:02.514Z,97515.34
2022-08-22T01:00:22.263Z,97514.50
2022-08-22T01:02:41.740Z,97515.19
2022-08-22T01:05:09.975Z,97525.34
2022-08-22T01:07:38.626Z,97517.19
2022-08-22T01:10:00.848Z,97516.53
2022-08-22T01:12:22.456Z,97516.41
2022-08-22T01:14:45.672Z,97508.69
2022-08-22T01:17:14.049Z,97513.41
2022-08-22T01:19:49.070Z,97503.28
2022-08-22T01:22:32.247Z,97510.25
2022-08-22T01:25:26.220Z,97511.44
2022-08-22T01:28:12.688Z,97507.13
2022-08-22T01:30:34.009Z,97511.75
2022-08-22T01:33:14.716Z,97509.53
2022-08-22T01:35:43.693Z,97509.75
2022-08-22T01:38:23.658Z,97507.13
2022-08-22T01:41:06.317Z,97505.25
2022-08-22T01:43:59.700Z,97508.25
2022-08-22T01:46:28.745Z,97512.75
2022-08-22T01:48:42.278Z,97505.19
2022-08-22T01:50:58.058Z,97512.09
2022-08-22T01:53:11.713Z,97508.63
2022-08-22T01:55:29.000Z,97510.31
2022-08-22T01:57:53.063Z,97512.69
2022-08-22T02:00:07.803Z,97512.88
2022-08-22T02:02:51.408Z,97514.81
2022-08-22T02:05:09.300Z,97506.97
2022-08-22T02:07:31.990Z,97514.66
2022-08-22T02:09:51.313Z,97514.59
2022-08-22T02:12:05.622Z,97510.59
2022-08-22T02:14:43.531Z,97512.28
2022-08-22T02:16:57.795Z,97511.06
2022-08-22T02:19:28.218Z,97506.56
2022-08-22T02:21:51.300Z,97510.22
2022-08-22T02:24:06.323Z,97501.03
2022-08-22T02:26:18.414Z,97499.94
2022-08-22T02:28:42.426Z,97489.28
2022-08-22T02:31:10.374Z,97489.41
2022-08-22T02:33:34.076Z,97486.59
2022-08-22T02:35:52.275Z,97485.00
2022-08-22T02:38:18.268Z,97477.59
2022-08-22T02:40:34.274Z,97479.78
2022-08-22T02:42:48.132Z,97480.66
2022-08-22T02:45:06.431Z,97488.31
2022-08-22T02:47:28.967Z,97478.59
2022-08-22T02:49:46.323Z,97483.47
2022-08-22T02:52:02.278Z,97478.69
2022-08-22T02:54:17.304Z,97474.59
2022-08-22T02:56:35.921Z,97479.19
2022-08-22T02:58:52.331Z,97477.28
2022-08-22T03:01:29.213Z,97482.22
2022-08-22T03:03:42.205Z,97477.88
2022-08-22T03:05:59.131Z,97475.56
2022-08-22T03:08:17.505Z,97475.19
2022-08-22T03:10:35.886Z,97472.41
2022-08-22T03:13:11.893Z,97479.81
2022-08-22T03:15:26.839Z,97467.69
2022-08-22T03:17:38.541Z,97465.59
2022-08-22T03:20:00.439Z,97469.25
2022-08-22T03:22:19.785Z,97461.59
2022-08-22T03:24:37.182Z,97459.19
2022-08-22T03:26:54.551Z,97454.44
2022-08-22T03:29:11.600Z,97459.41
2022-08-22T03:31:22.541Z,97447.66
2022-08-22T03:33:33.620Z,97456.38
2022-08-22T03:35:58.614Z,97457.59
2022-08-22T03:38:21.780Z,97457.25
2022-08-22T03:40:36.801Z,97461.72
2022-08-22T03:43:06.648Z,97460.53
2022-08-22T03:46:02.036Z,97458.44
2022-08-22T03:48:38.465Z,97465.00
2022-08-22T03:51:46.281Z,97464.25
2022-08-22T03:54:30.455Z,97469.50
2022-08-22T03:57:15.639Z,97467.06
2022-08-22T03:59:46.931Z,97475.19
2022-08-22T04:02:35.825Z,97472.63
2022-08-22T04:05:22.139Z,97485.38
2022-08-22T04:08:07.787Z,97472.13
2022-08-22T04:10:49.820Z,97486.56
2022-08-22T04:13:17.478Z,97481.22
2022-08-22T04:15:52.748Z,97483.75
2022-08-22T04:18:36.377Z,97482.06
2022-08-22T04:21:31.877Z,97487.13
2022-08-22T04:24:12.353Z,97494.53
2022-08-22T04:26:32.363Z,97494.53
2022-08-22T04:28:46.258Z,97492.84
2022-08-22T04:31:00.201Z,97493.56
2022-08-22T04:33:14.448Z,97496.38
2022-08-22T04:35:33.044Z,97489.22
2022-08-22T04:37:48.242Z,97492.03
2022-08-22T04:40:03.491Z,97492.25
2022-08-22T04:42:34.866Z,97498.06
2022-08-22T04:44:50.369Z,97495.69
2022-08-22T04:47:03.424Z,97505.97
2022-08-22T04:49:17.526Z,97499.31
2022-08-22T04:51:32.609Z,97499.69
2022-08-22T04:54:04.120Z,97507.34
2022-08-22T04:56:17.461Z,97510.97
2022-08-22T04:58:47.100Z,97521.81
2022-08-22T05:01:00.268Z,97533.84
2022-08-22T05:03:15.350Z,97544.03
2022-08-22T05:05:27.203Z,97540.38
2022-08-22T05:07:40.211Z,97543.25
2022-08-22T05:09:52.364Z,97550.22
2022-08-22T05:12:09.077Z,97552.06
2022-08-22T05:14:25.256Z,97552.63
2022-08-22T05:16:39.132Z,97556.66
2022-08-22T05:18:51.513Z,97560.50
2022-08-22T05:21:01.670Z,97561.19
2022-08-22T05:23:17.627Z,97559.50
2022-08-22T05:25:38.291Z,97568.63
2022-08-22T05:27:53.311Z,97560.97
2022-08-22T05:30:12.631Z,97564.38
2022-08-22T05:32:26.718Z,97565.81
2022-08-22T05:34:40.554Z,97575.03
2022-08-22T05:36:53.000Z,97558.69
2022-08-22T05:39:05.991Z,97568.22
2022-08-22T05:41:20.300Z,97566.84
2022-08-22T05:43:29.663Z,97561.41
2022-08-22T05:45:47.757Z,97566.84
2022-08-22T05:48:01.019Z,97564.06
2022-08-22T05:50:13.858Z,97567.59
2022-08-22T05:52:35.042Z,97580.78
2022-08-22T05:54:56.466Z,97585.31
2022-08-22T05:57:12.094Z,97589.56
2022-08-22T05:59:28.991Z,97596.31
2022-08-22T06:01:49.199Z,97601.81
2022-08-22T06:04:04.398Z,97613.31
2022-08-22T06:06:21.316Z,97642.72
2022-08-22T06:08:36.295Z,97669.03
2022-08-22T06:10:48.452Z,97647.69
2022-08-22T06:13:03.374Z,97643.72
2022-08-22T06:15:21.333Z,97655.50
2022-08-22T06:17:37.564Z,97635.97
2022-08-22T06:19:51.125Z,97638.44
2022-08-22T06:22:00.585Z,97656.19
2022-08-22T06:24:12.438Z,97671.94
2022-08-22T06:26:21.917Z,97662.53
2022-08-22T06:28:35.102Z,97657.59
2022-08-22T06:30:43.801Z,97653.19
2022-08-22T06:32:58.964Z,97657.22
2022-08-22T06:35:14.182Z,97681.06
2022-08-22T06:37:28.228Z,97681.91
2022-08-22T06:39:38.951Z,97678.44
2022-08-22T06:41:53.856Z,97666.00
2022-08-22T06:44:02.233Z,97664.44
2022-08-22T06:46:11.231Z,97675.41
2022-08-22T06:48:25.226Z,97679.72
2022-08-22T06:50:37.202Z,97669.94
2022-08-22T06:52:54.482Z,97667.59
2022-08-22T06:55:08.646Z,97666.94
2022-08-22T06:57:28.031Z,97664.53
2022-08-22T06:59:40.982Z,97661.66
2022-08-22T07:01:54.749Z,97671.00
2022-08-22T07:04:09.610Z,97672.50
2022-08-22T07:06:19.693Z,97665.72
2022-08-22T07:08:29.391Z,97681.06
2022-08-22T07:10:37.989Z,97692.19
2022-08-22T07:12:49.624Z,97680.88
2022-08-22T07:15:03.097Z,97687.81
2022-08-22T07:17:18.913Z,97685.94
2022-08-22T07:19:34.419Z,97677.47
2022-08-22T07:21:52.253Z,97672.97
2022-08-22T07:24:03.540Z,97663.16
2022-08-22T07:26:22.739Z,97661.25
2022-08-22T07:28:51.268Z,97656.97
2022-08-22T07:31:16.994Z,97663.13
2022-08-22T07:33:40.291Z,97662.34
2022-08-22T07:36:01.592Z,97648.22
2022-08-22T07:38:22.127Z,97664.53
2022-08-22T07:40:38.139Z,97653.25
2022-08-22T07:42:52.665Z,97651.13
2022-08-22T07:45:10.082Z,97650.34
2022-08-22T07:47:26.636Z,97648.22
2022-08-22T07:49:38.762Z,97655.09
2022-08-22T07:52:04.783Z,97633.03
2022-08-22T07:54:17.234Z,97635.13
2022-08-22T07:56:29.017Z,97616.03
2022-08-22T07:58:42.041Z,97609.41
2022-08-22T08:00:54.214Z,97597.38
2022-08-22T08:03:09.802Z,97594.56
2022-08-22T08:05:18.176Z,97591.69
2022-08-22T08:07:32.278Z,97580.81
2022-08-22T08:09:44.858Z,97583.72
2022-08-22T08:11:54.290Z,97584.16
2022-08-22T08:14:06.051Z,97584.63
2022-08-22T08:16:22.902Z,97579.63
2022-08-22T08:18:33.966Z,97577.38
2022-08-22T08:20:42.349Z,97583.25
2022-08-22T08:22:54.992Z,97583.47
2022-08-22T08:25:03.904Z,97582.03
2022-08-22T08:27:32.491Z,97584.84
2022-08-22T08:29:40.841Z,97592.00
2022-08-22T08:31:48.972Z,97589.91
2022-08-22T08:34:10.842Z,97585.56
2022-08-22T08:36:37.052Z,97580.72
2022-08-22T08:38:56.546Z,97582.06
2022-08-22T08:41:31.271Z,97575.97
2022-08-22T08:43:50.020Z,97573.22
2022-08-22T08:46:32.854Z,97582.72
2022-08-22T08:49:10.620Z,97576.47
2022-08-22T08:51:32.456Z,97581.75
2022-08-22T08:54:06.559Z,97584.22
2022-08-22T08:56:25.647Z,97585.59
2022-08-22T08:58:51.135Z,97579.13
2022-08-22T09:01:10.109Z,97572.84
2022-08-22T09:03:34.475Z,97576.53
2022-08-22T09:06:07.337Z,97575.53
2022-08-22T09:08:45.453Z,97583.47
2022-08-22T09:11:31.068Z,97589.94
2022-08-22T09:13:55.423Z,97580.34
2022-08-22T09:16:24.714Z,97580.94
2022-08-22T09:18:44.389Z,97581.47
2022-08-22T09:21:09.326Z,97601.03
2022-08-22T09:24:02.685Z,97608.13
2022-08-22T09:26:20.253Z,97607.56
2022-08-22T09:28:37.214Z,97614.19
2022-08-22T09:31:16.647Z,97605.81
2022-08-22T09:33:40.930Z,97605.88
2022-08-22T09:36:01.095Z,97632.19
2022-08-22T09:38:36.135Z,97630.97
2022-08-22T09:40:52.496Z,97638.94
2022-08-22T09:43:11.082Z,97642.63
2022-08-22T09:45:50.216Z,97637.69
2022-08-22T09:48:07.178Z,97631.97
2022-08-22T09:50:20.947Z,97637.28
2022-08-22T09:53:07.773Z,97634.00
2022-08-22T09:55:35.522Z,97625.34
2022-08-22T09:57:53.484Z,97642.53
2022-08-22T10:00:22.254Z,97626.78
2022-08-22T10:02:36.102Z,97620.47
2022-08-22T10:05:02.049Z,97632.03
2022-08-22T10:07:32.328Z,97622.50
2022-08-22T10:09:55.446Z,97641.13
2022-08-22T10:12:12.856Z,97639.06
2022-08-22T10:14:26.770Z,97644.09
2022-08-22T10:17:05.481Z,97639.13
2022-08-22T10:19:23.606Z,97635.84
2022-08-22T10:21:42.662Z,97634.06
2022-08-22T10:23:57.443Z,97644.06
2022-08-22T10:26:22.884Z,97645.25
2022-08-22T10:28:41.392Z,97627.28
2022-08-22T10:31:23.825Z,97617.88
2022-08-22T10:33:39.769Z,97615.84
2022-08-22T10:36:05.105Z,97613.63
2022-08-22T10:38:19.630Z,97615.69
2022-08-22T10:40:32.202Z,97612.75
2022-08-22T10:42:45.232Z,97624.38
2022-08-22T10:45:09.430Z,97609.31
2022-08-22T10:47:24.207Z,97617.34
2022-08-22T10:49:39.740Z,97608.81
2022-08-22T10:51:52.275Z,97616.00
2022-08-22T10:54:22.404Z,97607.84
2022-08-22T10:56:36.965Z,97602.69
2022-08-22T10:58:54.999Z,97611.13
2022-08-22T11:01:37.063Z,97605.59
2022-08-22T11:03:43.037Z,97601.34
2022-08-22T11:06:00.081Z,97588.53
2022-08-22T11:08:37.675Z,97593.16
2022-08-22T11:11:07.355Z,97591.44
2022-08-22T11:13:21.097Z,97593.38
2022-08-22T11:15:55.015Z,97595.59
2022-08-22T11:18:17.409Z,97587.50
2022-08-22T11:20:32.095Z,97574.44
2022-08-22T11:22:51.466Z,97568.41
2022-08-22T11:25:38.458Z,97575.56
2022-08-22T11:28:04.087Z,97578.25
2022-08-22T11:30:18.283Z,97570.53
2022-08-22T11:32:39.039Z,97578.56
2022-08-22T11:34:56.573Z,97571.50
2022-08-22T11:37:11.688Z,97568.59
2022-08-22T11:39:30.621Z,97563.09
2022-08-22T11:41:45.541Z,97567.38
2022-08-22T11:44:05.147Z,97560.69
2022-08-22T11:46:25.538Z,97575.59
2022-08-22T11:48:47.071Z,97573.00
2022-08-22T11:51:13.463Z,97563.91
2022-08-22T11:53:30.330Z,97563.38
2022-08-22T11:55:47.896Z,97565.75
2022-08-22T11:58:01.957Z,97560.81
2022-08-22T12:00:20.849Z,97558.28
2022-08-22T12:02:33.778Z,97551.72
2022-08-22T12:04:44.914Z,97544.47
2022-08-22T12:07:04.662Z,97536.69
2022-08-22T12:09:26.206Z,97545.09
2022-08-22T12:11:47.696Z,97542.44
2022-08-22T12:14:06.387Z,97540.03
2022-08-22T12:16:21.824Z,97543.41
2022-08-22T12:18:45.178Z,97540.44
2022-08-22T12:21:15.190Z,97551.72
2022-08-22T12:23:48.990Z,97537.06
2022-08-22T12:26:14.720Z,97540.81
2022-08-22T12:28:34.751Z,97542.31
2022-08-22T12:30:53.562Z,97534.75
2022-08-22T12:33:27.996Z,97529.91
2022-08-22T12:35:46.010Z,97533.44
2022-08-22T12:38:03.770Z,97536.84
2022-08-22T12:40:45.275Z,97523.88
2022-08-22T12:43:13.467Z,97525.19
2022-08-22T12:45:43.606Z,97531.81
2022-08-22T12:48:07.301Z,97526.47
2022-08-22T12:50:32.074Z,97527.66
2022-08-22T12:53:03.744Z,97525.13
2022-08-22T12:55:31.099Z,97530.00
2022-08-22T12:57:54.441Z,97518.41
2022-08-22T13:00:11.853Z,97502.81
2022-08-22T13:02:36.181Z,97521.00
2022-08-22T13:04:51.120Z,97526.41
2022-08-22T13:07:23.950Z,97521.00
2022-08-22T13:09:35.788Z,97518.06
2022-08-22T13:11:46.621Z,97524.69
2022-08-22T13:13:59.786Z,97521.44
2022-08-22T13:16:12.417Z,97504.59
2022-08-22T13:18:31.105Z,97525.22
2022-08-22T13:20:43.429Z,97518.03
2022-08-22T13:22:54.382Z,97516.28
2022-08-22T13:25:09.048Z,97519.28
2022-08-22T13:27:22.381Z,97521.66
2022-08-22T13:29:43.015Z,97516.31
2022-08-22T13:31:58.470Z,97514.38
2022-08-22T13:34:13.137Z,97508.16
2022-08-22T13:36:24.505Z,97505.63
2022-08-22T13:38:46.270Z,97517.84
2022-08-22T13:40:57.138Z,97513.25
2022-08-22T13:43:09.239Z,97515.81
2022-08-22T13:45:24.469Z,97511.72
2022-08-22T13:47:34.493Z,97509.97
2022-08-22T13:49:49.637Z,97505.41
2022-08-22T13:52:20.619Z,97514.34
2022-08-22T13:54:52.667Z,97509.38
2022-08-22T13:57:08.202Z,97502.78
2022-08-22T13:59:50.012Z,97505.06
2022-08-22T14:02:06.843Z,97511.22
2022-08-22T14:04:32.154Z,97513.94
2022-08-22T14:06:57.180Z,97512.94
2022-08-22T14:09:12.455Z,97505.50
2022-08-22T14:11:33.053Z,97500.84
2022-08-22T14:13:47.815Z,97489.88
2022-08-22T14:16:06.723Z,97498.91
2022-08-22T14:18:30.302Z,97497.41
2022-08-22T14:20:42.489Z,97492.72
2022-08-22T14:23:03.861Z,97495.00
2022-08-22T14:25:21.535Z,97481.19
2022-08-22T14:27:33.356Z,97481.03
2022-08-22T14:29:50.119Z,97472.41
2022-08-22T14:32:03.531Z,97475.75
2022-08-22T14:34:16.539Z,97474.28
2022-08-22T14:36:28.958Z,97479.97
2022-08-22T14:38:46.089Z,97477.44
2022-08-22T14:40:58.904Z,97476.59
2022-08-22T14:43:10.716Z,97476.78
2022-08-22T14:45:23.225Z,97480.31
2022-08-22T14:48:13.999Z,97474.03
2022-08-22T14:50:11.160Z,97478.44
2022-08-22T14:52:40.643Z,97476.16
2022-08-22T14:54:51.313Z,97468.16
2022-08-22T14:57:03.699Z,97470.44
2022-08-22T14:59:31.257Z,97470.25
2022-08-22T15:01:57.511Z,97473.59
2022-08-22T15:04:08.786Z,97462.25
2022-08-22T15:06:35.244Z,97462.06
2022-08-22T15:08:51.627Z,97455.81
2022-08-22T15:11:23.090Z,97453.94
2022-08-22T15:13:31.881Z,97447.16
2022-08-22T15:15:53.548Z,97457.69
2022-08-22T15:18:05.096Z,97455.59
2022-08-22T15:20:28.527Z,97450.38
2022-08-22T15:22:39.048Z,97450.16
2022-08-22T15:24:56.251Z,97449.28
2022-08-22T15:27:08.035Z,97444.47
2022-08-22T15:29:22.274Z,97453.44
2022-08-22T15:31:32.313Z,97443.38
2022-08-22T15:33:45.391Z,97439.13
2022-08-22T15:35:55.406Z,97433.19
2022-08-22T15:38:05.426Z,97436.69
2022-08-22T15:40:17.017Z,97435.47
2022-08-22T15:42:33.756Z,97435.69
2022-08-22T15:44:44.185Z,97434.88
2022-08-22T15:47:02.684Z,97427.16
2022-08-22T15:49:27.767Z,97428.63
2022-08-22T15:51:43.471Z,97422.97
2022-08-22T15:54:16.046Z,97429.25
2022-08-22T15:56:38.230Z,97431.16
2022-08-22T15:59:16.043Z,97431.56
2022-08-22T16:01:28.682Z,97422.13
2022-08-22T16:03:39.516Z,97427.59
2022-08-22T16:05:56.156Z,97418.38
2022-08-22T16:08:07.979Z,97418.00
2022-08-22T16:10:32.518Z,97423.59
2022-08-22T16:12:44.113Z,97428.00
2022-08-22T16:14:55.561Z,97428.00
2022-08-22T16:17:09.409Z,97430.31
2022-08-22T16:19:24.247Z,97424.88
2022-08-22T16:22:02.241Z,97428.81
2022-08-22T16:24:31.645Z,97420.25
2022-08-22T16:26:44.173Z,97431.78
2022-08-22T16:28:58.868Z,97419.19
2022-08-22T16:31:27.326Z,97423.19
2022-08-22T16:33:40.667Z,97426.31
2022-08-22T16:36:26.197Z,97426.53
2022-08-22T16:38:42.631Z,97421.91
2022-08-22T16:40:51.376Z,97418.97
2022-08-22T16:43:28.950Z,97418.53
2022-08-22T16:45:39.392Z,97422.31
2022-08-22T16:47:58.605Z,97426.91
2022-08-22T16:50:12.501Z,97421.00
2022-08-22T16:52:43.818Z,97420.78
2022-08-22T16:54:54.881Z,97417.00
2022-08-22T16:57:19.220Z,97422.22
2022-08-22T16:59:42.166Z,97419.72
2022-08-22T17:02:10.694Z,97425.09
2022-08-22T17:04:30.663Z,97421.53
2022-08-22T17:06:56.506Z,97422.16
2022-08-22T17:09:22.688Z,97420.69
2022-08-22T17:11:41.956Z,97414.94
2022-08-22T17:14:06.752Z,97422.44
2022-08-22T17:16:30.198Z,97422.63
2022-08-22T17:18:59.642Z,97428.03
2022-08-22T17:21:19.088Z,97421.50
2022-08-22T17:23:34.904Z,97419.13
2022-08-22T17:25:57.290Z,97424.59
2022-08-22T17:28:15.812Z,97422.63
2022-08-22T17:30:30.462Z,97426.78
2022-08-22T17:33:06.850Z,97428.03
2022-08-22T17:35:27.864Z,97425.63
2022-08-22T17:37:51.993Z,97436.47
2022-08-22T17:40:25.931Z,97427.78
2022-08-22T17:42:55.269Z,97437.31
2022-08-22T17:45:10.069Z,97440.16
2022-08-22T17:47:22.750Z,97442.50
2022-08-22T17:49:51.634Z,97444.19
2022-08-22T17:52:20.245Z,97440.75
2022-08-22T17:54:40.524Z,97442.22
2022-08-22T17:57:05.362Z,97437.56
2022-08-22T17:59:21.136Z,97445.56
2022-08-22T18:01:44.167Z,97441.53
2022-08-22T18:04:01.140Z,97437.50
2022-08-22T18:06:13.144Z,97442.81
2022-08-22T18:11:06.649Z,97436.84
2022-08-22T18:13:17.547Z,97443.81
2022-08-22T18:15:32.206Z,97441.19
2022-08-22T18:17:46.460Z,97434.88
2022-08-22T18:20:02.502Z,97446.41
2022-08-22T18:22:15.846Z,97447.78
2022-08-22T18:24:33.263Z,97448.09
2022-08-22T18:26:56.321Z,97445.53
2022-08-22T18:29:13.736Z,97455.81
2022-08-22T18:31:38.694Z,97450.22
2022-08-22T18:33:54.607Z,97449.09
2022-08-22T18:36:14.284Z,97446.38
2022-08-22T18:38:31.072Z,97453.84
2022-08-22T18:40:50.313Z,97448.53
2022-08-22T18:43:09.984Z,97454.66
2022-08-22T18:45:19.052Z,97453.16
2022-08-22T18:47:32.010Z,97451.28
2022-08-22T18:49:44.885Z,97455.28
2022-08-22T18:52:35.080Z,97457.03
2022-08-22T18:54:49.566Z,97458.41
2022-08-22T18:57:07.100Z,97462.25
2022-08-22T18:59:39.748Z,97452.47
2022-08-22T19:02:00.035Z,97455.53
2022-08-22T19:04:23.788Z,97459.31
2022-08-22T19:07:03.863Z,97458.75
2022-08-22T19:09:33.448Z,97461.63
2022-08-22T19:11:55.336Z,97460.19
2022-08-22T19:14:15.891Z,97455.97
2022-08-22T19:17:01.015Z,97461.25
2022-08-22T19:19:17.522Z,97461.44
2022-08-22T19:21:41.869Z,97467.53
2022-08-22T19:23:53.039Z,97469.88
2022-08-22T19:26:30.696Z,97475.28
2022-08-22T19:28:40.249Z,97482.16
2022-08-22T19:30:50.934Z,97481.97
2022-08-22T19:33:11.872Z,97481.97
2022-08-22T19:35:24.933Z,97477.97
2022-08-22T19:37:34.167Z,97480.38
2022-08-22T19:39:54.430Z,97473.47
2022-08-22T19:42:03.000Z,97466.94
2022-08-22T19:44:14.282Z,97466.09
2022-08-22T19:46:38.577Z,97466.25
2022-08-22T19:48:53.000Z,97466.91
2022-08-22T19:51:13.251Z,97471.66
2022-08-22T19:53:41.787Z,97467.97
2022-08-22T19:56:03.596Z,97469.16
2022-08-22T19:58:31.887Z,97471.53
2022-08-22T20:00:53.807Z,97473.38
2022-08-22T20:03:07.445Z,97473.38
2022-08-22T20:05:41.501Z,97465.59
2022-08-22T20:08:14.291Z,97469.84
2022-08-22T20:10:30.125Z,97465.78
2022-08-22T20:13:04.647Z,97462.06
2022-08-22T20:15:21.838Z,97461.22
2022-08-22T20:18:11.537Z,97462.78
2022-08-22T20:20:35.676Z,97467.97
2022-08-22T20:22:52.845Z,97465.13
2022-08-22T20:25:06.302Z,97463.44
2022-08-22T20:27:32.571Z,97468.31
2022-08-22T20:29:45.467Z,97472.34
2022-08-22T20:31:58.590Z,97465.63
2022-08-22T20:34:13.043Z,97473.03
2022-08-22T20:36:28.574Z,97474.03
2022-08-22T20:38:55.612Z,97478.78
2022-08-22T20:41:20.161Z,97483.16
2022-08-22T20:43:35.314Z,97489.03
2022-08-22T20:45:52.889Z,97488.06
2022-08-22T20:48:01.110Z,97486.00
2022-08-22T20:50:14.106Z,97488.84
2022-08-22T20:52:30.419Z,97480.03
2022-08-22T20:54:45.875Z,97495.53
2022-08-22T20:56:56.021Z,97489.25
2022-08-22T20:59:18.920Z,97494.81
2022-08-22T21:01:27.235Z,97496.97
2022-08-22T21:03:45.936Z,97489.84
2022-08-22T21:05:54.006Z,97498.09
2022-08-22T21:08:09.247Z,97498.59
2022-08-22T21:10:39.445Z,97496.75
2022-08-22T21:13:11.697Z,97499.75
2022-08-22T21:15:32.922Z,97496.69
2022-08-22T21:17:41.490Z,97498.22
2022-08-22T21:19:49.575Z,97498.84
2022-08-22T21:22:15.015Z,97497.03
2022-08-22T21:24:23.708Z,97509.03
2022-08-22T21:26:40.952Z,97502.63
2022-08-22T21:29:22.360Z,97503.63
2022-08-22T21:31:34.212Z,97503.94
2022-08-22T21:33:46.582Z,97508.50
2022-08-22T21:36:00.393Z,97503.47
2022-08-22T21:38:09.010Z,97508.56
2022-08-22T21:40:21.455Z,97508.03
2022-08-22T21:42:38.394Z,97515.56
2022-08-22T21:44:59.257Z,97512.13
2022-08-22T21:47:30.220Z,97520.19
2022-08-22T21:49:39.521Z,97521.50
2022-08-22T21:51:49.467Z,97526.69
2022-08-22T21:54:28.136Z,97517.47
2022-08-22T21:56:36.315Z,97524.53
2022-08-22T21:58:47.720Z,97524.38
2022-08-22T22:00:57.934Z,97533.25
2022-08-22T22:03:07.403Z,97529.47
2022-08-22T22:05:17.795Z,97528.97
2022-08-22T22:07:28.593Z,97524.72
2022-08-22T22:09:36.924Z,97531.41
2022-08-22T22:11:48.155Z,97539.25
2022-08-22T22:13:59.851Z,97532.41
2022-08-22T22:16:12.630Z,97536.78
2022-08-22T22:18:28.525Z,97533.09
2022-08-22T22:20:37.232Z,97538.84
2022-08-22T22:22:46.617Z,97530.78
2022-08-22T22:24:54.833Z,97536.09
2022-08-22T22:27:04.662Z,97540.59
2022-08-22T22:29:15.309Z,97541.81
2022-08-22T22:31:25.067Z,97543.28
2022-08-22T22:33:36.201Z,97542.19
2022-08-22T22:35:44.465Z,97542.66
2022-08-22T22:37:52.475Z,97539.13
2022-08-22T22:40:01.197Z,97540.44
2022-08-22T22:42:15.727Z,97542.91
2022-08-22T22:44:27.427Z,97542.75
2022-08-22T22:46:37.189Z,97543.75
2022-08-22T22:48:45.143Z,97550.91
2022-08-22T22:50:53.057Z,97552.91
2022-08-22T22:53:01.677Z,97550.50
2022-08-22T22:55:11.634Z,97552.22
2022-08-22T22:57:32.867Z,97555.53
2022-08-22T22:59:53.549Z,97559.91
2022-08-22T23:02:08.098Z,97551.66
2022-08-22T23:04:16.192Z,97560.59
2022-08-22T23:06:26.900Z,97561.59
2022-08-22T23:08:36.268Z,97556.91
2022-08-22T23:10:44.664Z,97562.66
2022-08-22T23:12:53.750Z,97564.13
2022-08-22T23:15:04.827Z,97568.25
2022-08-22T23:17:13.599Z,97570.09
2022-08-22T23:19:22.091Z,97576.38
2022-08-22T23:21:33.030Z,97565.22
2022-08-22T23:23:41.434Z,97568.22
2022-08-22T23:25:50.009Z,97566.41
2022-08-22T23:27:59.735Z,97578.06
2022-08-22T23:30:13.281Z,97579.34
2022-08-22T23:32:21.091Z,97576.53
2022-08-22T23:34:33.616Z,97583.75
2022-08-22T23:36:43.532Z,97576.72
2022-08-22T23:38:52.972Z,97584.38
2022-08-22T23:41:09.806Z,97578.06
2022-08-22T23:43:18.197Z,97586.25
2022-08-22T23:45:28.783Z,97586.72
2022-08-22T23:47:36.893Z,97580.22
2022-08-22T23:49:46.014Z,97582.06
2022-08-22T23:51:54.494Z,97577.84
2022-08-22T23:54:04.163Z,97578.53
2022-08-22T23:56:19.490Z,97581.75
2022-08-22T23:58:28.043Z,97581.75
